Time;durP1;ratioP1;P1;durP2;ratioP2;P2;SDS_P1;SDS_P2;PMS_P1;PMS_P2;Temp;Humidity;BMP_temperature;BMP_pressure;BME280_temperature;BME280_humidity;BME280_pressure;Samples;Min_cycle;Max_cycle;Signal;HPM_P1;HPM_P2
2022/09/13 00:01:01;;;;;;;;;;;;;;;18.95;100.00;-25600.63;5073823;28;20014;-80
2022/09/13 00:03:29;;;;;;;;;;;;;;;18.99;100.00;-25601.63;5056475;28;19966;-81
2022/09/13 00:05:54;;;;;;;;;;;;;;;19.01;100.00;-25602.34;5056989;28;19920;-80
2022/09/13 00:08:20;;;;;;;;;;;;;;;18.98;100.00;-25601.47;5064774;28;19921;-81
2022/09/13 00:10:45;;;;;;;;;;;;;;;18.92;100.00;-25599.75;5056648;28;19951;-80
2022/09/13 00:13:11;;;;;;;;;;;;;;;18.86;100.00;-25598.00;5073034;28;20011;-81
2022/09/13 00:15:41;;;;;;;;;;;;;;;18.82;100.00;-25597.00;5081140;28;19928;-81
2022/09/13 00:18:06;;;;;;;;;;;;;;;18.81;100.00;-25596.72;5060428;28;19946;-81
2022/09/13 00:20:32;;;;;;;;;;;;;;;18.77;100.00;-25595.56;5087646;28;19920;-81
2022/09/13 00:22:57;;;;;;;;;;;;;;;18.67;100.00;-25592.66;5075355;28;20188;-81
2022/09/13 00:25:22;;;;;;;;;;;;;;;18.61;100.00;-25591.06;5062620;28;19920;-81
2022/09/13 00:27:47;;;;;;;;;;;;;;;18.52;100.00;-25588.47;5073181;28;19935;-81
2022/09/13 00:30:13;;;;;;;;;;;;;;;18.51;100.00;-25588.03;5068357;28;19956;-81
2022/09/13 00:32:40;;;;;;;;;;;;;;;18.54;100.00;-25589.03;5075719;28;20004;-81
2022/09/13 00:35:06;;;;;;;;;;;;;;;18.61;100.00;-25590.94;5075731;28;19923;-81
2022/09/13 00:37:32;;;;;;;;;;;;;;;18.61;100.00;-25591.06;5062419;28;19921;-80
2022/09/13 00:39:57;;;;;;;;;;;;;;;18.54;100.00;-25589.03;5075825;28;19912;-81
2022/09/13 00:42:32;;;;;;;;;;;;;;;18.56;100.00;-25589.47;5087782;28;20008;-81
2022/09/13 00:45:13;;;;;;;;;;;;;;;18.59;100.00;-25590.34;5057159;28;19920;-81
2022/09/13 00:47:41;;;;;;;;;;;;;;;18.52;100.00;-25588.31;5093012;28;20187;-80
2022/09/13 00:50:10;;;;;;;;;;;;;;;18.50;100.00;-25587.88;5062241;28;19916;-80
2022/09/13 00:52:42;;;;;;;;;;;;;;;18.43;100.00;-25585.88;5061985;28;20357;-80
2022/09/13 00:55:12;;;;;;;;;;;;;;;18.34;100.00;-25583.25;5075581;28;20466;-80
2022/09/13 00:57:37;;;;;;;;;;;;;;;18.41;100.00;-25585.44;5073417;28;19934;-80
2022/09/13 01:00:21;;;;;;;;;;;;;;;18.48;100.00;-25587.31;5062878;28;20007;-80
2022/09/13 01:02:53;;;;;;;;;;;;;;;18.49;100.00;-25587.59;5060128;28;19955;-80
2022/09/13 01:05:21;;;;;;;;;;;;;;;18.52;100.00;-25588.47;5061866;28;19966;-80
2022/09/13 01:07:46;;;;;;;;;;;;;;;18.50;100.00;-25587.88;5072856;28;20011;-81
2022/09/13 01:10:12;;;;;;;;;;;;;;;18.44;100.00;-25586.31;5072996;28;19966;-81
2022/09/13 01:12:42;;;;;;;;;;;;;;;18.34;100.00;-25583.25;5054891;28;19920;-80
2022/09/13 01:15:09;;;;;;;;;;;;;;;18.32;100.00;-25582.81;5055842;28;19917;-81
2022/09/13 01:17:35;;;;;;;;;;;;;;;18.34;100.00;-25583.41;5060406;28;19969;-81
2022/09/13 01:20:01;;;;;;;;;;;;;;;18.41;100.00;-25585.44;5058491;28;19916;-80
2022/09/13 01:22:45;;;;;;;;;;;;;;;18.44;100.00;-25586.16;5080643;28;19920;-80
2022/09/13 01:25:29;;;;;;;;;;;;;;;18.49;100.00;-25587.59;5093743;28;19920;-80
2022/09/13 01:28:05;;;;;;;;;;;;;;;18.50;100.00;-25587.88;5059079;28;19923;-80
2022/09/13 01:30:43;;;;;;;;;;;;;;;18.41;100.00;-25585.28;5070370;28;19921;-80
2022/09/13 01:33:28;;;;;;;;;;;;;;;18.44;100.00;-25586.16;5054063;28;19969;-81
2022/09/13 01:36:12;;;;;;;;;;;;;;;18.45;100.00;-25586.44;5059120;28;19920;-81
2022/09/13 01:38:56;;;;;;;;;;;;;;;18.45;100.00;-25586.59;5076817;28;19921;-80
2022/09/13 01:41:28;;;;;;;;;;;;;;;18.38;100.00;-25584.41;5058149;28;19920;-81
2022/09/13 01:44:15;;;;;;;;;;;;;;;18.38;100.00;-25584.41;5058836;28;19920;-80
2022/09/13 01:46:53;;;;;;;;;;;;;;;18.38;100.00;-25584.56;5055868;28;19920;-81
2022/09/13 01:49:25;;;;;;;;;;;;;;;18.42;100.00;-25585.72;5053667;28;19920;-82
2022/09/13 01:51:57;;;;;;;;;;;;;;;18.40;100.00;-25585.00;5067925;28;19920;-81
2022/09/13 01:54:45;;;;;;;;;;;;;;;18.32;100.00;-25582.69;5074889;28;20003;-81
2022/09/13 01:57:20;;;;;;;;;;;;;;;18.20;100.00;-25579.50;5078759;28;19952;-81
2022/09/13 01:59:49;;;;;;;;;;;;;;;18.20;100.00;-25579.34;5078611;28;19962;-81
2022/09/13 02:02:35;;;;;;;;;;;;;;;18.23;100.00;-25580.38;5093467;28;19923;-80
2022/09/13 02:05:16;;;;;;;;;;;;;;;18.30;100.00;-25582.25;5078546;28;19920;-79
2022/09/13 02:07:42;;;;;;;;;;;;;;;18.22;100.00;-25580.06;5067430;28;19931;-81
2022/09/13 02:10:11;;;;;;;;;;;;;;;18.27;100.00;-25581.38;5038256;28;19921;-81
2022/09/13 02:12:39;;;;;;;;;;;;;;;18.24;100.00;-25580.50;5038510;28;19916;-81
2022/09/13 02:15:31;;;;;;;;;;;;;;;18.14;100.00;-25577.75;5038179;28;19924;-81
2022/09/13 02:18:05;;;;;;;;;;;;;;;18.12;100.00;-25577.31;5052854;28;19987;-81
2022/09/13 02:20:32;;;;;;;;;;;;;;;18.16;100.00;-25578.34;5039711;28;19952;-81
2022/09/13 02:23:08;;;;;;;;;;;;;;;18.20;100.00;-25579.34;5075259;28;19916;-81
2022/09/13 02:25:35;;;;;;;;;;;;;;;18.22;100.00;-25580.06;5073862;28;20011;-81
2022/09/13 02:28:04;;;;;;;;;;;;;;;18.25;100.00;-25580.94;5056327;28;20476;-81
2022/09/13 02:30:31;;;;;;;;;;;;;;;18.29;100.00;-25581.97;5056463;28;19920;-81
2022/09/13 02:33:10;;;;;;;;;;;;;;;18.34;100.00;-25583.25;5049796;28;19921;-82
2022/09/13 02:35:45;;;;;;;;;;;;;;;18.35;100.00;-25583.53;5039601;28;20147;-81
2022/09/13 02:38:22;;;;;;;;;;;;;;;18.36;100.00;-25583.97;5059642;28;19921;-79
2022/09/13 02:40:52;;;;;;;;;;;;;;;18.35;100.00;-25583.53;5040811;28;19970;-81
2022/09/13 02:43:45;;;;;;;;;;;;;;;18.34;100.00;-25583.41;5036973;28;20300;-79
2022/09/13 02:46:19;;;;;;;;;;;;;;;18.33;100.00;-25583.13;5054123;28;19927;-80
2022/09/13 02:48:44;;;;;;;;;;;;;;;18.33;100.00;-25583.13;5060139;28;20356;-80
2022/09/13 02:51:24;;;;;;;;;;;;;;;18.33;100.00;-25582.97;5047374;28;19920;-80
2022/09/13 02:53:54;;;;;;;;;;;;;;;18.34;100.00;-25583.25;5046501;28;19917;-82
2022/09/13 02:56:27;;;;;;;;;;;;;;;18.32;100.00;-25582.81;5067210;28;19930;-81
2022/09/13 02:58:59;;;;;;;;;;;;;;;18.35;100.00;-25583.69;5069958;28;19931;-80
2022/09/13 03:01:24;;;;;;;;;;;;;;;18.33;100.00;-25582.97;5073595;28;19928;-82
2022/09/13 03:03:51;;;;;;;;;;;;;;;18.32;100.00;-25582.69;5073634;28;19921;-82
2022/09/13 03:06:23;;;;;;;;;;;;;;;18.14;100.00;-25577.63;5089200;28;19936;-81
2022/09/13 03:08:48;;;;;;;;;;;;;;;17.97;100.00;-25572.97;5089021;28;19920;-81
2022/09/13 03:11:29;;;;;;;;;;;;;;;17.89;100.00;-25570.66;5102476;28;19900;-80
2022/09/13 03:14:07;;;;;;;;;;;;;;;17.83;100.00;-25568.94;5064267;28;19940;-80
2022/09/13 03:16:43;;;;;;;;;;;;;;;17.92;100.00;-25571.69;5092502;28;19916;-81
2022/09/13 03:19:27;;;;;;;;;;;;;;;17.98;100.00;-25573.28;5095853;28;19920;-81
2022/09/13 03:21:52;;;;;;;;;;;;;;;18.04;100.00;-25574.88;5079768;28;19924;-80
2022/09/13 03:24:30;;;;;;;;;;;;;;;18.11;100.00;-25577.03;5076787;28;19931;-81
2022/09/13 03:27:01;;;;;;;;;;;;;;;18.15;100.00;-25578.06;5082223;28;19916;-81
2022/09/13 03:29:30;;;;;;;;;;;;;;;18.17;100.00;-25578.50;5068935;28;19920;-79
2022/09/13 03:32:15;;;;;;;;;;;;;;;18.19;100.00;-25579.22;5080682;28;20360;-80
2022/09/13 03:34:54;;;;;;;;;;;;;;;18.18;100.00;-25578.91;5073589;28;19931;-82
2022/09/13 03:37:23;;;;;;;;;;;;;;;18.07;100.00;-25575.72;5059479;28;19924;-81
2022/09/13 03:40:01;;;;;;;;;;;;;;;18.06;100.00;-25575.44;5075020;28;19919;-79
2022/09/13 03:42:32;;;;;;;;;;;;;;;18.09;100.00;-25576.31;5097936;28;19920;-81
2022/09/13 03:44:59;;;;;;;;;;;;;;;18.12;100.00;-25577.31;5066349;28;19946;-79
2022/09/13 03:47:26;;;;;;;;;;;;;;;18.16;100.00;-25578.19;5083436;28;19916;-80
2022/09/13 03:49:52;;;;;;;;;;;;;;;18.12;100.00;-25577.31;5067470;28;19958;-79
2022/09/13 03:52:20;;;;;;;;;;;;;;;18.11;100.00;-25576.91;5096152;28;19916;-78
2022/09/13 03:54:46;;;;;;;;;;;;;;;18.14;100.00;-25577.75;5060881;28;19920;-79
2022/09/13 03:57:13;;;;;;;;;;;;;;;18.03;100.00;-25574.56;5057663;28;19999;-79
2022/09/13 03:59:41;;;;;;;;;;;;;;;18.04;100.00;-25574.88;5075374;28;20316;-79
2022/09/13 04:02:10;;;;;;;;;;;;;;;18.06;100.00;-25575.44;5084776;28;19988;-79
2022/09/13 04:04:36;;;;;;;;;;;;;;;17.99;100.00;-25573.41;5073637;28;19943;-78
2022/09/13 04:07:03;;;;;;;;;;;;;;;17.89;100.00;-25570.81;5056508;28;19921;-79
2022/09/13 04:09:28;;;;;;;;;;;;;;;17.84;100.00;-25569.22;5090702;28;19939;-79
2022/09/13 04:11:53;;;;;;;;;;;;;;;17.82;100.00;-25568.78;5075136;28;20439;-79
2022/09/13 04:14:21;;;;;;;;;;;;;;;17.81;100.00;-25568.50;5063207;28;20388;-79
2022/09/13 04:16:47;;;;;;;;;;;;;;;17.74;100.00;-25566.47;5070901;28;19959;-82
2022/09/13 04:19:12;;;;;;;;;;;;;;;17.71;100.00;-25565.59;5070683;28;19996;-78
2022/09/13 04:21:38;;;;;;;;;;;;;;;17.73;100.00;-25566.19;5069541;28;20284;-78
2022/09/13 04:24:03;;;;;;;;;;;;;;;17.72;100.00;-25565.88;5070647;28;19921;-79
2022/09/13 04:26:30;;;;;;;;;;;;;;;17.71;100.00;-25565.75;5036786;28;19913;-79
2022/09/13 04:28:56;;;;;;;;;;;;;;;17.63;100.00;-25563.41;5040498;28;19921;-80
2022/09/13 04:31:21;;;;;;;;;;;;;;;17.60;100.00;-25562.56;5090135;28;19960;-80
2022/09/13 04:33:48;;;;;;;;;;;;;;;17.59;100.00;-25562.41;5075779;28;20052;-77
2022/09/13 04:36:13;;;;;;;;;;;;;;;17.56;100.00;-25561.53;5036194;28;19928;-78
2022/09/13 04:38:39;;;;;;;;;;;;;;;17.59;100.00;-25562.25;5069797;28;19921;-78
2022/09/13 04:41:04;;;;;;;;;;;;;;;17.55;100.00;-25561.25;5078309;28;20399;-80
2022/09/13 04:43:31;;;;;;;;;;;;;;;17.46;100.00;-25558.63;5077207;28;19921;-79
2022/09/13 04:45:59;;;;;;;;;;;;;;;17.39;100.00;-25556.63;5069627;28;20372;-80
2022/09/13 04:48:24;;;;;;;;;;;;;;;17.41;100.00;-25557.34;5044459;28;19920;-79
2022/09/13 04:50:49;;;;;;;;;;;;;;;17.35;100.00;-25555.59;5076375;28;20339;-78
2022/09/13 04:53:15;;;;;;;;;;;;;;;17.30;100.00;-25554.16;5079658;28;19920;-78
2022/09/13 04:55:40;;;;;;;;;;;;;;;17.33;100.00;-25555.00;5073379;28;19921;-78
2022/09/13 04:58:06;;;;;;;;;;;;;;;17.32;100.00;-25554.59;5073189;28;20335;-82
2022/09/13 05:00:31;;;;;;;;;;;;;;;17.35;100.00;-25555.44;5084737;28;19925;-80
2022/09/13 05:02:58;;;;;;;;;;;;;;;17.36;100.00;-25555.88;5039680;28;19982;-83
2022/09/13 05:05:24;;;;;;;;;;;;;;;17.45;100.00;-25558.34;5047975;28;19971;-83
2022/09/13 05:07:50;;;;;;;;;;;;;;;17.52;100.00;-25560.38;5064147;28;19920;-81
2022/09/13 05:10:15;;;;;;;;;;;;;;;17.57;100.00;-25561.69;5078900;28;19994;-82
2022/09/13 05:12:40;;;;;;;;;;;;;;;17.54;100.00;-25560.97;5077509;28;20007;-78
2022/09/13 05:15:06;;;;;;;;;;;;;;;17.58;100.00;-25561.97;5070535;28;20288;-78
2022/09/13 05:17:31;;;;;;;;;;;;;;;17.64;100.00;-25563.56;5058693;28;19920;-78
2022/09/13 05:19:56;;;;;;;;;;;;;;;17.68;100.00;-25564.72;5058919;28;20432;-78
2022/09/13 05:22:23;;;;;;;;;;;;;;;17.68;100.00;-25564.72;5067690;28;19917;-77
2022/09/13 05:24:48;;;;;;;;;;;;;;;17.75;100.00;-25566.91;5059889;28;19920;-78
2022/09/13 05:27:13;;;;;;;;;;;;;;;17.82;100.00;-25568.63;5096583;28;19960;-78
2022/09/13 05:29:38;;;;;;;;;;;;;;;17.84;100.00;-25569.38;5071862;28;20003;-77
2022/09/13 05:32:03;;;;;;;;;;;;;;;17.89;100.00;-25570.81;5057736;28;19964;-78
2022/09/13 05:34:31;;;;;;;;;;;;;;;17.93;100.00;-25571.97;5057439;28;19985;-79
2022/09/13 05:36:56;;;;;;;;;;;;;;;17.96;100.00;-25572.56;5058197;28;20430;-77
2022/09/13 05:39:21;;;;;;;;;;;;;;;17.94;100.00;-25572.25;5091626;28;19975;-80
2022/09/13 05:41:47;;;;;;;;;;;;;;;18.02;100.00;-25574.44;5057833;28;20591;-77
2022/09/13 05:44:12;;;;;;;;;;;;;;;17.98;100.00;-25573.13;5057685;28;20361;-79
2022/09/13 05:46:38;;;;;;;;;;;;;;;18.03;100.00;-25574.56;5058184;28;19916;-77
2022/09/13 05:49:03;;;;;;;;;;;;;;;18.09;100.00;-25576.31;5058186;28;19919;-79
2022/09/13 05:51:29;;;;;;;;;;;;;;;18.16;100.00;-25578.19;5057087;28;19917;-77
2022/09/13 05:53:55;;;;;;;;;;;;;;;18.25;100.00;-25580.94;5057281;28;20010;-78
2022/09/13 05:56:22;;;;;;;;;;;;;;;18.17;100.00;-25578.63;5055845;28;19916;-72
2022/09/13 05:58:48;;;;;;;;;;;;;;;18.17;100.00;-25578.63;5055914;28;19916;-73
2022/09/13 06:01:15;;;;;;;;;;;;;;;18.20;100.00;-25579.50;5054589;28;19917;-73
2022/09/13 06:03:41;;;;;;;;;;;;;;;18.32;100.00;-25582.69;5054713;28;19916;-73
2022/09/13 06:06:07;;;;;;;;;;;;;;;18.38;100.00;-25584.41;5055236;28;20198;-72
2022/09/13 06:08:33;;;;;;;;;;;;;;;18.49;100.00;-25587.59;5055454;28;19924;-74
2022/09/13 06:10:59;;;;;;;;;;;;;;;18.59;100.00;-25590.50;5055706;28;20549;-72
2022/09/13 06:13:26;;;;;;;;;;;;;;;18.69;100.00;-25593.09;5058450;28;19920;-73
2022/09/13 06:15:51;;;;;;;;;;;;;;;18.70;100.00;-25593.53;5075709;28;20284;-75
2022/09/13 06:18:17;;;;;;;;;;;;;;;18.81;100.00;-25596.72;5073888;28;19916;-73
2022/09/13 06:20:42;;;;;;;;;;;;;;;18.86;100.00;-25598.00;5075405;28;19916;-83
2022/09/13 06:23:09;;;;;;;;;;;;;;;18.95;100.00;-25600.47;5076884;28;19923;-81
2022/09/13 06:25:34;;;;;;;;;;;;;;;19.30;100.00;-25610.44;5071536;28;19920;-80
2022/09/13 06:27:59;;;;;;;;;;;;;;;19.89;100.00;-25627.03;5077738;28;20425;-81
2022/09/13 06:30:25;;;;;;;;;;;;;;;20.23;100.00;-25636.41;5065283;28;19928;-80
2022/09/13 06:32:57;;;;;;;;;;;;;;;20.38;100.00;-25640.72;5041195;28;19944;-82
2022/09/13 06:35:22;;;;;;;;;;;;;;;20.24;100.00;-25636.69;5057740;28;19921;-82
2022/09/13 06:37:48;;;;;;;;;;;;;;;20.17;100.00;-25634.69;5054697;28;20350;-73
2022/09/13 06:40:13;;;;;;;;;;;;;;;20.12;100.00;-25633.25;5053987;28;19934;-72
2022/09/13 06:42:39;;;;;;;;;;;;;;;20.08;100.00;-25632.22;5054301;28;19917;-73
2022/09/13 06:45:04;;;;;;;;;;;;;;;20.11;100.00;-25632.97;5055199;28;19964;-72
2022/09/13 06:47:30;;;;;;;;;;;;;;;19.83;100.00;-25625.16;5054785;28;20368;-72
2022/09/13 06:49:56;;;;;;;;;;;;;;;19.82;100.00;-25624.88;5054122;28;19923;-72
2022/09/13 06:52:23;;;;;;;;;;;;;;;19.95;100.00;-25628.63;5054345;28;19963;-73
2022/09/13 06:54:48;;;;;;;;;;;;;;;20.02;100.00;-25630.66;5055260;28;20343;-73
2022/09/13 06:57:14;;;;;;;;;;;;;;;20.17;100.00;-25634.69;5037322;28;19921;-73
2022/09/13 06:59:39;;;;;;;;;;;;;;;20.11;100.00;-25633.09;5054668;28;19921;-74
2022/09/13 07:02:04;;;;;;;;;;;;;;;20.19;100.00;-25635.41;5054203;28;19916;-74
2022/09/13 07:04:30;;;;;;;;;;;;;;;20.23;100.00;-25636.56;5053913;28;19969;-74
2022/09/13 07:06:56;;;;;;;;;;;;;;;20.27;100.00;-25637.56;5054560;28;19931;-73
2022/09/13 07:09:22;;;;;;;;;;;;;;;20.18;100.00;-25634.97;5054268;28;20381;-73
2022/09/13 07:11:48;;;;;;;;;;;;;;;20.16;100.00;-25634.53;5053406;28;19923;-72
2022/09/13 07:14:18;;;;;;;;;;;;;;;20.34;100.00;-25639.59;5053709;28;19940;-74
2022/09/13 07:16:45;;;;;;;;;;;;;;;20.35;100.00;-25639.88;5053511;28;19923;-74
2022/09/13 07:19:14;;;;;;;;;;;;;;;20.35;100.00;-25639.88;5054022;28;19962;-73
2022/09/13 07:21:40;;;;;;;;;;;;;;;20.56;100.00;-25645.63;5054586;28;19923;-75
2022/09/13 07:24:07;;;;;;;;;;;;;;;20.48;100.00;-25643.31;5054333;28;19916;-76
2022/09/13 07:26:33;;;;;;;;;;;;;;;20.50;100.00;-25643.91;5055601;28;19913;-82
2022/09/13 07:28:59;;;;;;;;;;;;;;;20.44;100.00;-25642.47;5089527;28;20378;-81
2022/09/13 07:31:35;;;;;;;;;;;;;;;20.35;100.00;-25639.88;5055265;28;20277;-81
2022/09/13 07:34:03;;;;;;;;;;;;;;;20.52;100.00;-25644.47;5055771;28;19970;-81
2022/09/13 07:36:30;;;;;;;;;;;;;;;20.36;100.00;-25640.03;5056424;28;19916;-81
2022/09/13 07:38:56;;;;;;;;;;;;;;;20.40;100.00;-25641.16;5055653;28;19913;-82
2022/09/13 07:41:22;;;;;;;;;;;;;;;20.41;100.00;-25641.47;5054202;28;19916;-74
2022/09/13 07:43:48;;;;;;;;;;;;;;;20.20;100.00;-25635.56;5053678;28;19961;-74
2022/09/13 07:46:14;;;;;;;;;;;;;;;20.02;100.00;-25630.50;5052792;28;20000;-73
2022/09/13 07:48:41;;;;;;;;;;;;;;;19.91;100.00;-25627.63;5054054;28;19916;-73
2022/09/13 07:51:11;;;;;;;;;;;;;;;19.76;100.00;-25623.13;5053252;28;19916;-74
2022/09/13 07:53:37;;;;;;;;;;;;;;;19.71;100.00;-25621.84;5052912;28;19928;-74
2022/09/13 07:56:03;;;;;;;;;;;;;;;19.68;100.00;-25620.97;5053732;28;20413;-73
2022/09/13 07:58:29;;;;;;;;;;;;;;;19.56;100.00;-25617.66;5053441;28;19962;-74
2022/09/13 08:00:58;;;;;;;;;;;;;;;19.57;100.00;-25617.81;5052750;28;19964;-74
2022/09/13 08:03:25;;;;;;;;;;;;;;;19.67;100.00;-25620.69;5053038;28;19916;-71
2022/09/13 08:05:50;;;;;;;;;;;;;;;19.88;100.00;-25626.75;5086216;28;20034;-72
2022/09/13 08:08:16;;;;;;;;;;;;;;;20.35;100.00;-25639.72;5053049;28;20507;-74
2022/09/13 08:10:41;;;;;;;;;;;;;;;20.66;100.00;-25648.38;5087139;28;20412;-73
2022/09/13 08:13:06;;;;;;;;;;;;;;;20.79;100.00;-25652.13;5086017;28;19916;-73
2022/09/13 08:15:32;;;;;;;;;;;;;;;21.13;100.00;-25661.63;5086971;28;19920;-74
2022/09/13 08:17:57;;;;;;;;;;;;;;;21.45;100.00;-25670.69;5052955;28;19916;-75
2022/09/13 08:20:22;;;;;;;;;;;;;;;21.67;100.00;-25676.88;5085979;28;20513;-74
2022/09/13 08:22:48;;;;;;;;;;;;;;;21.93;100.00;-25684.06;5087378;28;19922;-75
2022/09/13 08:25:13;;;;;;;;;;;;;;;21.69;100.00;-25677.44;5086808;28;19916;-75
2022/09/13 08:27:38;;;;;;;;;;;;;;;22.02;100.00;-25686.50;5086803;28;19923;-82
2022/09/13 08:30:04;;;;;;;;;;;;;;;22.14;100.00;-25689.94;5087541;28;19935;-75
2022/09/13 08:32:29;;;;;;;;;;;;;;;22.11;100.00;-23027.31;5052476;28;19917;-75
2022/09/13 08:34:55;;;;;;;;;;;;;;;21.80;100.00;-22355.22;5051895;28;19916;-74
2022/09/13 08:37:20;;;;;;;;;;;;;;;21.63;100.00;-22683.59;5085991;28;19923;-74
2022/09/13 08:39:45;;;;;;;;;;;;;;;21.67;100.00;-21354.94;5086399;28;19916;-74
2022/09/13 08:42:18;;;;;;;;;;;;;;;21.62;100.00;-22683.38;5085359;28;20015;-74
2022/09/13 08:44:45;;;;;;;;;;;;;;;21.90;100.00;-20361.75;5053157;28;19966;-75
2022/09/13 08:47:30;;;;;;;;;;;;;;;21.85;100.00;-18697.03;5052692;28;19917;-74
2022/09/13 08:50:35;;;;;;;;;;;;;;;21.69;100.00;-20025.00;5051853;28;19916;-74
2022/09/13 08:53:00;;;;;;;;;;;;;;;21.59;100.00;-18027.22;4972571;28;20338;-73
2022/09/13 08:55:44;;;;;;;;;;;;;;;21.59;100.00;-19690.47;4971406;28;19918;-74
2022/09/13 08:58:12;;;;;;;;;;;;;;;21.59;100.00;-20023.06;5019461;28;19917;-73
2022/09/13 09:00:40;;;;;;;;;;;;;;;21.74;100.00;-20358.53;5052758;28;19956;-74
2022/09/13 09:03:25;;;;;;;;;;;;;;;21.68;100.00;-18694.13;5051867;28;19916;-77
2022/09/13 09:05:51;;;;;;;;;;;;;;;22.06;100.00;-16702.50;5052114;28;19960;-77
2022/09/13 09:08:33;;;;;;;;;;;;;;;22.31;100.00;-14372.63;5086000;28;20370;-74
2022/09/13 09:11:01;;;;;;;;;;;;;;;21.73;100.00;-16032.03;5051724;28;19974;-74
2022/09/13 09:13:45;;;;;;;;;;;;;;;21.50;100.00;-17360.28;5052401;28;19978;-77
2022/09/13 09:16:10;;;;;;;;;;;;;;;21.61;100.00;-17694.78;5052184;28;19917;-75
2022/09/13 09:18:38;;;;;;;;;;;;;;;21.50;100.00;-16361.88;5052732;28;19923;-75
2022/09/13 09:21:05;;;;;;;;;;;;;;;21.19;100.00;-17022.97;5053224;28;20272;-75
2022/09/13 09:23:31;;;;;;;;;;;;;;;21.47;100.00;-20020.78;5051686;28;20304;-74
2022/09/13 09:25:59;;;;;;;;;;;;;;;21.60;100.00;-19358.13;5052638;28;19943;-74
2022/09/13 09:28:25;;;;;;;;;;;;;;;21.85;100.00;-18364.28;5052846;28;19921;-82
2022/09/13 09:31:01;;;;;;;;;;;;;;;21.93;100.00;-14035.47;5088437;28;19916;-85
2022/09/13 09:33:41;;;;;;;;;;;;;;;21.92;100.00;-9700.53;5054693;28;19916;-82
2022/09/13 09:36:09;;;;;;;;;;;;;;;22.01;100.00;-10701.72;5054711;28;19916;-82
2022/09/13 09:38:40;;;;;;;;;;;;;;;21.93;100.00;-9366.91;5055165;28;19923;-83
2022/09/13 09:41:11;;;;;;;;;;;;;;;22.17;100.00;-8699.84;5075998;28;19923;-80
2022/09/13 09:43:47;;;;;;;;;;;;;;;22.29;100.00;-6695.94;5057666;28;20424;-82
2022/09/13 09:46:14;;;;;;;;;;;;;;;22.41;100.00;-2683.75;5058713;28;19920;-82
2022/09/13 09:48:50;;;;;;;;;;;;;;;22.40;100.00;4012.09;5059317;28;19917;-83
2022/09/13 09:51:18;;;;;;;;;;;;;;;22.02;100.00;9702.25;5058663;28;19920;-84
2022/09/13 09:53:46;;;;;;;;;;;;;;;22.49;100.00;6695.69;5058950;28;19924;-83
2022/09/13 09:56:15;;;;;;;;;;;;;;;22.72;100.00;11400.47;5059321;28;19912;-83
2022/09/13 09:58:42;;;;;;;;;;;;;;;22.41;100.00;21476.31;5057725;28;19924;-81
2022/09/13 10:01:14;;;;;;;;;;;;;;;22.31;100.00;14410.28;5056337;28;19916;-80
2022/09/13 10:03:40;;;;;;;;;;;;;;;22.07;100.00;4675.66;5056348;28;19916;-80
2022/09/13 10:06:07;;;;;;;;;;;;;;;21.86;100.00;-1685.38;5089881;28;19927;-83
2022/09/13 10:08:34;;;;;;;;;;;;;;;21.87;100.00;-5694.94;5058092;28;19917;-79
2022/09/13 10:11:00;;;;;;;;;;;;;;;21.56;100.00;-7364.59;5057384;28;19920;-75
2022/09/13 10:13:27;;;;;;;;;;;;;;;21.80;100.00;-6362.97;5054062;28;20012;-75
2022/09/13 10:15:57;;;;;;;;;;;;;;;22.11;100.00;-3689.13;5055788;28;19932;-74
2022/09/13 10:18:23;;;;;;;;;;;;;;;21.97;100.00;-2687.28;5055127;28;20368;-75
2022/09/13 10:21:03;;;;;;;;;;;;;;;22.16;100.00;-4357.28;5054880;28;19916;-74
2022/09/13 10:23:29;;;;;;;;;;;;;;;22.32;100.00;326.84;5055032;28;19932;-74
2022/09/13 10:25:57;;;;;;;;;;;;;;;22.46;100.00;1667.97;5055553;28;20003;-73
2022/09/13 10:28:23;;;;;;;;;;;;;;;22.15;100.00;11047.81;5053949;28;19920;-74
2022/09/13 10:30:48;;;;;;;;;;;;;;;22.01;100.00;9031.16;5055115;28;20007;-74
2022/09/13 10:33:23;;;;;;;;;;;;;;;22.16;100.00;12390.47;5055317;28;20045;-73
2022/09/13 10:35:51;;;;;;;;;;;;;;;22.45;100.00;14751.16;5054666;28;20296;-75
2022/09/13 10:38:23;;;;;;;;;;;;;;;22.75;100.00;20818.22;5054987;28;19948;-75
2022/09/13 10:40:48;;;;;;;;;;;;;;;22.94;100.00;34323.38;5054378;28;19916;-75
2022/09/13 10:43:15;;;;;;;;;;;;;;;22.82;100.00;39387.31;5088173;28;20270;-78
2022/09/13 10:45:41;;;;;;;;;;;;;;;22.52;100.00;44102.81;5054897;28;19921;-74
2022/09/13 10:48:13;;;;;;;;;;;;;;;22.24;100.00;41035.09;5087758;28;20484;-76
2022/09/13 10:50:38;;;;;;;;;;;;;;;22.22;100.00;41033.13;5054761;28;19917;-75
2022/09/13 10:53:25;;;;;;;;;;;;;;;22.36;100.00;36311.06;5088941;28;19919;-80
2022/09/13 10:55:54;;;;;;;;;;;;;;;22.37;100.00;38001.78;5054946;28;19925;-77
2022/09/13 10:58:19;;;;;;;;;;;;;;;22.24;100.00;42049.81;5090865;28;19917;-84
2022/09/13 11:01:09;;;;;;;;;;;;;;;22.29;100.00;45099.00;5090576;28;19917;-80
2022/09/13 11:06:29;;;;;;;;;;;;;;;22.72;100.00;51577.59;5073888;28;19924;-84
2022/09/13 11:09:03;;;;;;;;;;;;;;;22.85;100.00;66552.47;5054284;28;20723;-76
2022/09/13 11:11:47;;;;;;;;;;;;;;;23.14;100.00;75459.31;5054353;28;19912;-74
2022/09/13 11:14:33;;;;;;;;;;;;;;;22.62;100.00;96952.09;5053806;28;19920;-74
2022/09/13 11:16:58;;;;;;;;;;;;;;;22.49;100.00;106548.88;5053537;28;19961;-74
2022/09/13 11:19:29;;;;;;;;;;;;;;;22.43;100.00;114111.03;5054033;28;19956;-74
2022/09/13 11:22:01;;;;;;;;;;;;;;;22.22;100.00;129944.56;5054503;28;19927;-77
2022/09/13 11:24:26;;;;;;;;;;;;;;;22.29;100.00;127538.38;5053185;28;19917;-81
2022/09/13 11:26:56;;;;;;;;;;;;;;;22.29;100.00;123738.81;5054453;28;19920;-75
2022/09/13 11:29:25;;;;;;;;;;;;;;;22.17;100.00;134083.97;5053901;28;19950;-75
2022/09/13 11:32:09;;;;;;;;;;;;;;;21.83;100.00;141275.63;5053337;28;19970;-74
2022/09/13 11:34:42;;;;;;;;;;;;;;;21.74;100.00;137790.81;5054036;28;19917;-75
2022/09/13 11:37:36;;;;;;;;;;;;;;;21.67;100.00;148169.91;5053403;28;20360;-75
2022/09/13 11:40:12;;;;;;;;;;;;;;;21.81;100.00;148203.22;5036725;28;19920;-74
2022/09/13 11:42:38;;;;;;;;;;;;;;;22.02;100.00;148255.81;5054047;28;19923;-73
2022/09/13 11:45:18;;;;;;;;;;;;;;;22.09;100.00;148273.75;5053085;28;20371;-75
2022/09/13 11:47:51;;;;;;;;;;;;;;;22.02;100.00;148255.81;5053927;28;20074;-75
2022/09/13 11:50:20;;;;;;;;;;;;;;;22.12;100.00;148280.16;5053720;28;19917;-74
2022/09/13 11:52:54;;;;;;;;;;;;;;;22.14;100.00;148285.28;5053210;28;20280;-78
2022/09/13 11:55:24;;;;;;;;;;;;;;;22.08;100.00;148271.19;5053585;28;20010;-73
2022/09/13 11:57:51;;;;;;;;;;;;;;;22.07;100.00;148268.63;5052976;28;19917;-74
2022/09/13 12:00:24;;;;;;;;;;;;;;;21.88;100.00;148222.44;5053074;28;20448;-74
2022/09/13 12:03:05;;;;;;;;;;;;;;;21.98;100.00;148246.81;5053280;28;20430;-75
2022/09/13 12:05:40;;;;;;;;;;;;;;;22.28;100.00;148321.22;5052630;28;19946;-76
2022/09/13 12:08:08;;;;;;;;;;;;;;;22.29;100.00;148323.75;5053556;28;19917;-82
2022/09/13 12:10:49;;;;;;;;;;;;;;;22.35;100.00;148339.19;5054834;28;19955;-80
2022/09/13 12:13:21;;;;;;;;;;;;;;;22.40;100.00;148352.06;5053840;28;19917;-78
2022/09/13 12:15:49;;;;;;;;;;;;;;;22.59;100.00;148399.53;5055313;28;19937;-80
2022/09/13 12:18:43;;;;;;;;;;;;;;;22.73;100.00;148434.16;5056045;28;19917;-79
2022/09/13 12:21:10;;;;;;;;;;;;;;;22.69;100.00;148422.63;5037943;28;20277;-84
2022/09/13 12:24:03;;;;;;;;;;;;;;;22.64;100.00;148409.75;5056048;28;19998;-82
2022/09/13 12:26:41;;;;;;;;;;;;;;;22.80;100.00;148450.84;5054992;28;20003;-82
2022/09/13 12:29:27;;;;;;;;;;;;;;;22.52;100.00;148381.53;5055715;28;20061;-81
2022/09/13 12:31:56;;;;;;;;;;;;;;;22.61;100.00;148402.06;5015066;28;19920;-83
2022/09/13 12:34:24;;;;;;;;;;;;;;;22.36;100.00;148340.53;5054513;28;19916;-83
2022/09/13 12:36:49;;;;;;;;;;;;;;;22.34;100.00;148335.34;5054758;28;19917;-81
2022/09/13 12:39:32;;;;;;;;;;;;;;;22.73;100.00;148432.84;5055112;28;19916;-81
2022/09/13 12:42:24;;;;;;;;;;;;;;;22.52;100.00;148381.53;5055622;28;19924;-82
2022/09/13 12:45:10;;;;;;;;;;;;;;;22.56;100.00;148391.81;5050987;28;20389;-83